sensor_id;sensor_type;location;lat;lon;timestamp;P1;durP1;ratioP1;P2;durP2;ratioP2
51495;SDS011;37572;52.094;4.870;2023-02-15T00:01:23;16.77;;;13.87;;
51495;SDS011;37572;52.094;4.870;2023-02-15T00:03:48;16.27;;;13.50;;
51495;SDS011;37572;52.094;4.870;2023-02-15T00:06:14;17.50;;;14.17;;
51495;SDS011;37572;52.094;4.870;2023-02-15T00:08:39;19.60;;;14.32;;
51495;SDS011;37572;52.094;4.870;2023-02-15T00:11:05;18.30;;;13.80;;
51495;SDS011;37572;52.094;4.870;2023-02-15T00:13:30;18.83;;;15.00;;
51495;SDS011;37572;52.094;4.870;2023-02-15T00:16:00;22.73;;;15.87;;
51495;SDS011;37572;52.094;4.870;2023-02-15T00:18:25;21.10;;;15.02;;
51495;SDS011;37572;52.094;4.870;2023-02-15T00:20:50;19.90;;;14.27;;
51495;SDS011;37572;52.094;4.870;2023-02-15T00:23:15;23.73;;;15.67;;
51495;SDS011;37572;52.094;4.870;2023-02-15T00:25:40;21.60;;;15.57;;
51495;SDS011;37572;52.094;4.870;2023-02-15T00:28:05;18.73;;;14.73;;
51495;SDS011;37572;52.094;4.870;2023-02-15T00:30:30;16.57;;;12.70;;
51495;SDS011;37572;52.094;4.870;2023-02-15T00:32:56;17.17;;;13.37;;
51495;SDS011;37572;52.094;4.870;2023-02-15T00:35:21;16.87;;;13.27;;
51495;SDS011;37572;52.094;4.870;2023-02-15T00:37:46;19.83;;;14.30;;
51495;SDS011;37572;52.094;4.870;2023-02-15T00:40:11;19.80;;;15.07;;
51495;SDS011;37572;52.094;4.870;2023-02-15T00:42:36;18.47;;;13.70;;
51495;SDS011;37572;52.094;4.870;2023-02-15T00:45:02;21.63;;;14.80;;
51495;SDS011;37572;52.094;4.870;2023-02-15T00:47:27;22.65;;;15.68;;
51495;SDS011;37572;52.094;4.870;2023-02-15T00:49:52;23.87;;;16.60;;
51495;SDS011;37572;52.094;4.870;2023-02-15T00:52:17;25.30;;;16.70;;
51495;SDS011;37572;52.094;4.870;2023-02-15T00:54:43;23.97;;;15.87;;
51495;SDS011;37572;52.094;4.870;2023-02-15T00:57:08;26.63;;;17.90;;
51495;SDS011;37572;52.094;4.870;2023-02-15T00:59:33;27.33;;;16.93;;
51495;SDS011;37572;52.094;4.870;2023-02-15T01:01:58;28.80;;;17.30;;
51495;SDS011;37572;52.094;4.870;2023-02-15T01:04:23;24.40;;;16.20;;
51495;SDS011;37572;52.094;4.870;2023-02-15T01:06:48;25.63;;;17.87;;
51495;SDS011;37572;52.094;4.870;2023-02-15T01:09:14;29.17;;;18.23;;
51495;SDS011;37572;52.094;4.870;2023-02-15T01:11:39;27.90;;;19.27;;
51495;SDS011;37572;52.094;4.870;2023-02-15T01:14:04;29.40;;;18.90;;
51495;SDS011;37572;52.094;4.870;2023-02-15T01:16:30;28.67;;;18.05;;
51495;SDS011;37572;52.094;4.870;2023-02-15T01:18:55;26.70;;;16.17;;
51495;SDS011;37572;52.094;4.870;2023-02-15T01:21:21;25.33;;;17.27;;
51495;SDS011;37572;52.094;4.870;2023-02-15T01:23:46;28.40;;;15.85;;
51495;SDS011;37572;52.094;4.870;2023-02-15T01:26:12;27.93;;;18.27;;
51495;SDS011;37572;52.094;4.870;2023-02-15T01:28:38;36.72;;;22.05;;
51495;SDS011;37572;52.094;4.870;2023-02-15T01:31:10;35.63;;;21.00;;
51495;SDS011;37572;52.094;4.870;2023-02-15T01:33:36;28.70;;;17.83;;
51495;SDS011;37572;52.094;4.870;2023-02-15T01:36:01;31.15;;;16.73;;
51495;SDS011;37572;52.094;4.870;2023-02-15T01:38:27;22.42;;;14.85;;
51495;SDS011;37572;52.094;4.870;2023-02-15T01:40:52;20.07;;;13.33;;
51495;SDS011;37572;52.094;4.870;2023-02-15T01:43:18;19.23;;;12.32;;
51495;SDS011;37572;52.094;4.870;2023-02-15T01:45:43;14.50;;;11.57;;
51495;SDS011;37572;52.094;4.870;2023-02-15T01:48:20;15.20;;;11.68;;
51495;SDS011;37572;52.094;4.870;2023-02-15T01:50:48;31.35;;;18.00;;
51495;SDS011;37572;52.094;4.870;2023-02-15T01:53:32;55.92;;;28.55;;
51495;SDS011;37572;52.094;4.870;2023-02-15T01:56:00;63.08;;;31.85;;
51495;SDS011;37572;52.094;4.870;2023-02-15T01:58:27;76.78;;;34.10;;
51495;SDS011;37572;52.094;4.870;2023-02-15T02:00:54;82.68;;;35.58;;
51495;SDS011;37572;52.094;4.870;2023-02-15T02:03:20;86.85;;;39.72;;
51495;SDS011;37572;52.094;4.870;2023-02-15T02:05:50;86.18;;;37.90;;
51495;SDS011;37572;52.094;4.870;2023-02-15T02:08:15;85.20;;;39.80;;
51495;SDS011;37572;52.094;4.870;2023-02-15T02:10:40;80.90;;;39.60;;
51495;SDS011;37572;52.094;4.870;2023-02-15T02:13:05;83.77;;;38.47;;
51495;SDS011;37572;52.094;4.870;2023-02-15T02:15:40;80.70;;;38.50;;
51495;SDS011;37572;52.094;4.870;2023-02-15T02:18:15;81.05;;;36.40;;
51495;SDS011;37572;52.094;4.870;2023-02-15T02:23:48;66.00;;;33.78;;
51495;SDS011;37572;52.094;4.870;2023-02-15T02:26:40;69.82;;;34.67;;
51495;SDS011;37572;52.094;4.870;2023-02-15T02:34:30;67.28;;;35.20;;
51495;SDS011;37572;52.094;4.870;2023-02-15T02:45:20;67.88;;;31.83;;
51495;SDS011;37572;52.094;4.870;2023-02-15T02:47:43;65.07;;;31.10;;
51495;SDS011;37572;52.094;4.870;2023-02-15T02:50:15;66.47;;;32.28;;
51495;SDS011;37572;52.094;4.870;2023-02-15T02:55:07;73.00;;;35.80;;
51495;SDS011;37572;52.094;4.870;2023-02-15T02:57:33;74.60;;;36.25;;
51495;SDS011;37572;52.094;4.870;2023-02-15T03:00:03;71.85;;;35.20;;
51495;SDS011;37572;52.094;4.870;2023-02-15T03:02:30;77.70;;;34.65;;
51495;SDS011;37572;52.094;4.870;2023-02-15T03:04:58;68.97;;;34.33;;
51495;SDS011;37572;52.094;4.870;2023-02-15T03:07:28;70.18;;;32.83;;
51495;SDS011;37572;52.094;4.870;2023-02-15T03:09:55;71.05;;;34.38;;
51495;SDS011;37572;52.094;4.870;2023-02-15T03:12:23;69.20;;;33.22;;
51495;SDS011;37572;52.094;4.870;2023-02-15T03:14:50;68.80;;;33.10;;
51495;SDS011;37572;52.094;4.870;2023-02-15T03:17:16;63.30;;;31.45;;
51495;SDS011;37572;52.094;4.870;2023-02-15T03:19:42;66.35;;;34.28;;
51495;SDS011;37572;52.094;4.870;2023-02-15T03:24:41;66.00;;;32.55;;
51495;SDS011;37572;52.094;4.870;2023-02-15T03:27:12;66.50;;;33.75;;
51495;SDS011;37572;52.094;4.870;2023-02-15T03:29:42;69.38;;;33.05;;
51495;SDS011;37572;52.094;4.870;2023-02-15T03:32:08;62.00;;;30.48;;
51495;SDS011;37572;52.094;4.870;2023-02-15T03:34:35;63.20;;;30.90;;
51495;SDS011;37572;52.094;4.870;2023-02-15T03:37:03;67.60;;;32.00;;
51495;SDS011;37572;52.094;4.870;2023-02-15T03:41:56;64.70;;;30.70;;
51495;SDS011;37572;52.094;4.870;2023-02-15T03:44:25;58.83;;;30.20;;
51495;SDS011;37572;52.094;4.870;2023-02-15T03:46:53;70.18;;;32.67;;
51495;SDS011;37572;52.094;4.870;2023-02-15T03:49:22;63.67;;;31.40;;
51495;SDS011;37572;52.094;4.870;2023-02-15T03:51:50;66.43;;;32.53;;
51495;SDS011;37572;52.094;4.870;2023-02-15T03:57:01;68.55;;;32.53;;
51495;SDS011;37572;52.094;4.870;2023-02-15T03:59:45;64.28;;;32.70;;
51495;SDS011;37572;52.094;4.870;2023-02-15T04:02:29;68.65;;;32.85;;
51495;SDS011;37572;52.094;4.870;2023-02-15T04:04:56;73.18;;;34.95;;
51495;SDS011;37572;52.094;4.870;2023-02-15T04:07:22;75.73;;;33.90;;
51495;SDS011;37572;52.094;4.870;2023-02-15T04:09:47;75.17;;;34.00;;
51495;SDS011;37572;52.094;4.870;2023-02-15T04:12:30;70.53;;;34.15;;
51495;SDS011;37572;52.094;4.870;2023-02-15T04:14:56;70.83;;;32.53;;
51495;SDS011;37572;52.094;4.870;2023-02-15T04:17:39;74.75;;;33.40;;
51495;SDS011;37572;52.094;4.870;2023-02-15T04:20:05;73.83;;;32.63;;
51495;SDS011;37572;52.094;4.870;2023-02-15T04:22:49;72.03;;;34.65;;
51495;SDS011;37572;52.094;4.870;2023-02-15T04:25:33;68.75;;;32.05;;
51495;SDS011;37572;52.094;4.870;2023-02-15T04:27:58;73.67;;;32.67;;
51495;SDS011;37572;52.094;4.870;2023-02-15T04:30:24;72.83;;;34.10;;
51495;SDS011;37572;52.094;4.870;2023-02-15T04:32:49;74.20;;;32.40;;
51495;SDS011;37572;52.094;4.870;2023-02-15T04:35:15;65.87;;;30.37;;
51495;SDS011;37572;52.094;4.870;2023-02-15T04:37:40;77.10;;;35.07;;
51495;SDS011;37572;52.094;4.870;2023-02-15T04:40:06;71.80;;;34.88;;
51495;SDS011;37572;52.094;4.870;2023-02-15T04:42:31;75.03;;;35.55;;
51495;SDS011;37572;52.094;4.870;2023-02-15T04:44:57;75.60;;;34.92;;
51495;SDS011;37572;52.094;4.870;2023-02-15T04:47:22;68.40;;;32.13;;
51495;SDS011;37572;52.094;4.870;2023-02-15T04:49:47;66.67;;;32.63;;
51495;SDS011;37572;52.094;4.870;2023-02-15T04:52:13;73.10;;;34.40;;
51495;SDS011;37572;52.094;4.870;2023-02-15T04:54:38;73.67;;;31.93;;
51495;SDS011;37572;52.094;4.870;2023-02-15T04:57:03;78.43;;;34.33;;
51495;SDS011;37572;52.094;4.870;2023-02-15T04:59:29;75.45;;;33.63;;
51495;SDS011;37572;52.094;4.870;2023-02-15T05:01:54;77.03;;;35.40;;
51495;SDS011;37572;52.094;4.870;2023-02-15T05:04:19;75.37;;;31.83;;
51495;SDS011;37572;52.094;4.870;2023-02-15T05:06:44;77.57;;;33.97;;
51495;SDS011;37572;52.094;4.870;2023-02-15T05:09:12;72.67;;;32.37;;
51495;SDS011;37572;52.094;4.870;2023-02-15T05:11:38;69.85;;;33.25;;
51495;SDS011;37572;52.094;4.870;2023-02-15T05:14:03;71.60;;;33.23;;
51495;SDS011;37572;52.094;4.870;2023-02-15T05:16:28;73.97;;;32.17;;
51495;SDS011;37572;52.094;4.870;2023-02-15T05:18:53;69.73;;;34.83;;
51495;SDS011;37572;52.094;4.870;2023-02-15T05:21:19;74.67;;;33.30;;
51495;SDS011;37572;52.094;4.870;2023-02-15T05:23:44;76.13;;;32.75;;
51495;SDS011;37572;52.094;4.870;2023-02-15T05:26:10;73.63;;;32.07;;
51495;SDS011;37572;52.094;4.870;2023-02-15T05:28:54;76.28;;;33.05;;
51495;SDS011;37572;52.094;4.870;2023-02-15T05:31:19;74.23;;;31.07;;
51495;SDS011;37572;52.094;4.870;2023-02-15T05:33:45;73.77;;;32.93;;
51495;SDS011;37572;52.094;4.870;2023-02-15T05:36:10;71.63;;;33.53;;
51495;SDS011;37572;52.094;4.870;2023-02-15T05:38:36;79.93;;;34.50;;
51495;SDS011;37572;52.094;4.870;2023-02-15T05:41:02;75.85;;;32.38;;
51495;SDS011;37572;52.094;4.870;2023-02-15T05:43:28;74.17;;;33.80;;
51495;SDS011;37572;52.094;4.870;2023-02-15T05:45:54;71.97;;;31.90;;
51495;SDS011;37572;52.094;4.870;2023-02-15T05:48:20;68.22;;;35.05;;
51495;SDS011;37572;52.094;4.870;2023-02-15T05:50:45;78.72;;;34.00;;
51495;SDS011;37572;52.094;4.870;2023-02-15T05:53:11;69.87;;;32.93;;
51495;SDS011;37572;52.094;4.870;2023-02-15T05:55:39;69.05;;;31.13;;
51495;SDS011;37572;52.094;4.870;2023-02-15T05:58:05;73.47;;;33.90;;
51495;SDS011;37572;52.094;4.870;2023-02-15T06:00:30;70.13;;;34.20;;
51495;SDS011;37572;52.094;4.870;2023-02-15T06:02:55;71.77;;;32.20;;
51495;SDS011;37572;52.094;4.870;2023-02-15T06:05:20;64.47;;;30.90;;
51495;SDS011;37572;52.094;4.870;2023-02-15T06:07:46;74.40;;;33.03;;
51495;SDS011;37572;52.094;4.870;2023-02-15T06:10:11;68.47;;;30.53;;
51495;SDS011;37572;52.094;4.870;2023-02-15T06:12:36;74.60;;;32.37;;
51495;SDS011;37572;52.094;4.870;2023-02-15T06:15:02;66.60;;;31.67;;
51495;SDS011;37572;52.094;4.870;2023-02-15T06:17:27;73.68;;;32.45;;
51495;SDS011;37572;52.094;4.870;2023-02-15T06:19:52;67.57;;;31.17;;
51495;SDS011;37572;52.094;4.870;2023-02-15T06:22:17;68.37;;;31.17;;
51495;SDS011;37572;52.094;4.870;2023-02-15T06:24:42;62.50;;;31.30;;
51495;SDS011;37572;52.094;4.870;2023-02-15T06:27:08;74.33;;;33.67;;
51495;SDS011;37572;52.094;4.870;2023-02-15T06:29:34;71.00;;;31.55;;
51495;SDS011;37572;52.094;4.870;2023-02-15T06:31:59;71.13;;;32.67;;
51495;SDS011;37572;52.094;4.870;2023-02-15T06:34:25;68.93;;;33.40;;
51495;SDS011;37572;52.094;4.870;2023-02-15T06:37:02;70.68;;;32.17;;
51495;SDS011;37572;52.094;4.870;2023-02-15T06:41:53;70.65;;;31.52;;
51495;SDS011;37572;52.094;4.870;2023-02-15T06:46:43;67.10;;;29.48;;
51495;SDS011;37572;52.094;4.870;2023-02-15T06:49:08;75.70;;;33.47;;
51495;SDS011;37572;52.094;4.870;2023-02-15T06:51:33;77.53;;;33.83;;
51495;SDS011;37572;52.094;4.870;2023-02-15T06:53:59;73.57;;;32.53;;
51495;SDS011;37572;52.094;4.870;2023-02-15T06:56:24;79.18;;;35.83;;
51495;SDS011;37572;52.094;4.870;2023-02-15T06:58:49;71.27;;;34.23;;
51495;SDS011;37572;52.094;4.870;2023-02-15T07:01:15;81.83;;;33.87;;
51495;SDS011;37572;52.094;4.870;2023-02-15T07:03:40;65.45;;;31.92;;
51495;SDS011;37572;52.094;4.870;2023-02-15T07:06:05;75.20;;;33.50;;
51495;SDS011;37572;52.094;4.870;2023-02-15T07:08:33;78.53;;;34.60;;
51495;SDS011;37572;52.094;4.870;2023-02-15T07:10:58;75.70;;;34.78;;
51495;SDS011;37572;52.094;4.870;2023-02-15T07:13:43;71.40;;;34.53;;
51495;SDS011;37572;52.094;4.870;2023-02-15T07:16:09;69.43;;;32.95;;
51495;SDS011;37572;52.094;4.870;2023-02-15T07:18:35;71.35;;;33.13;;
51495;SDS011;37572;52.094;4.870;2023-02-15T07:21:00;72.50;;;33.92;;
51495;SDS011;37572;52.094;4.870;2023-02-15T07:23:25;73.53;;;33.93;;
51495;SDS011;37572;52.094;4.870;2023-02-15T07:25:56;76.15;;;35.45;;
51495;SDS011;37572;52.094;4.870;2023-02-15T07:28:21;70.00;;;32.20;;
51495;SDS011;37572;52.094;4.870;2023-02-15T07:30:47;71.33;;;32.80;;
51495;SDS011;37572;52.094;4.870;2023-02-15T07:33:13;72.47;;;33.22;;
51495;SDS011;37572;52.094;4.870;2023-02-15T07:35:53;72.22;;;34.20;;
51495;SDS011;37572;52.094;4.870;2023-02-15T07:38:19;70.55;;;34.08;;
51495;SDS011;37572;52.094;4.870;2023-02-15T07:40:44;65.65;;;32.20;;
51495;SDS011;37572;52.094;4.870;2023-02-15T07:43:10;71.68;;;34.70;;
51495;SDS011;37572;52.094;4.870;2023-02-15T07:45:35;62.05;;;30.67;;
51495;SDS011;37572;52.094;4.870;2023-02-15T07:48:01;67.90;;;32.43;;
51495;SDS011;37572;52.094;4.870;2023-02-15T07:50:26;67.65;;;33.33;;
51495;SDS011;37572;52.094;4.870;2023-02-15T07:52:52;58.70;;;30.97;;
51495;SDS011;37572;52.094;4.870;2023-02-15T07:55:17;66.03;;;33.17;;
51495;SDS011;37572;52.094;4.870;2023-02-15T07:57:44;69.43;;;32.88;;
51495;SDS011;37572;52.094;4.870;2023-02-15T08:00:10;62.42;;;31.00;;
51495;SDS011;37572;52.094;4.870;2023-02-15T08:02:36;59.55;;;30.63;;
51495;SDS011;37572;52.094;4.870;2023-02-15T08:05:02;66.15;;;30.65;;
51495;SDS011;37572;52.094;4.870;2023-02-15T08:07:27;61.50;;;31.30;;
51495;SDS011;37572;52.094;4.870;2023-02-15T08:09:52;58.27;;;32.07;;
51495;SDS011;37572;52.094;4.870;2023-02-15T08:12:18;60.67;;;30.38;;
51495;SDS011;37572;52.094;4.870;2023-02-15T08:14:43;57.73;;;29.43;;
51495;SDS011;37572;52.094;4.870;2023-02-15T08:17:09;56.33;;;30.47;;
51495;SDS011;37572;52.094;4.870;2023-02-15T08:19:34;60.50;;;28.50;;
51495;SDS011;37572;52.094;4.870;2023-02-15T08:22:00;58.95;;;29.27;;
51495;SDS011;37572;52.094;4.870;2023-02-15T08:24:30;59.55;;;30.90;;
51495;SDS011;37572;52.094;4.870;2023-02-15T08:26:56;57.00;;;29.05;;
51495;SDS011;37572;52.094;4.870;2023-02-15T08:29:22;57.65;;;29.50;;
51495;SDS011;37572;52.094;4.870;2023-02-15T08:31:48;58.33;;;29.10;;
51495;SDS011;37572;52.094;4.870;2023-02-15T08:34:15;51.65;;;29.58;;
51495;SDS011;37572;52.094;4.870;2023-02-15T08:36:40;55.90;;;27.13;;
51495;SDS011;37572;52.094;4.870;2023-02-15T08:39:06;52.53;;;27.30;;
51495;SDS011;37572;52.094;4.870;2023-02-15T08:41:32;49.97;;;27.15;;
51495;SDS011;37572;52.094;4.870;2023-02-15T08:43:59;51.47;;;27.77;;
51495;SDS011;37572;52.094;4.870;2023-02-15T08:46:26;46.40;;;25.77;;
51495;SDS011;37572;52.094;4.870;2023-02-15T08:48:52;50.50;;;26.08;;
51495;SDS011;37572;52.094;4.870;2023-02-15T08:51:22;50.90;;;26.77;;
51495;SDS011;37572;52.094;4.870;2023-02-15T08:53:48;48.72;;;26.90;;
51495;SDS011;37572;52.094;4.870;2023-02-15T08:56:18;56.63;;;27.88;;
51495;SDS011;37572;52.094;4.870;2023-02-15T08:58:43;51.05;;;26.50;;
51495;SDS011;37572;52.094;4.870;2023-02-15T09:01:12;50.92;;;28.05;;
51495;SDS011;37572;52.094;4.870;2023-02-15T09:03:38;51.03;;;27.85;;
51495;SDS011;37572;52.094;4.870;2023-02-15T09:06:03;54.97;;;27.02;;
51495;SDS011;37572;52.094;4.870;2023-02-15T09:08:29;51.10;;;27.00;;
51495;SDS011;37572;52.094;4.870;2023-02-15T09:10:54;47.43;;;25.90;;
51495;SDS011;37572;52.094;4.870;2023-02-15T09:13:20;51.30;;;27.42;;
51495;SDS011;37572;52.094;4.870;2023-02-15T09:15:47;49.67;;;24.70;;
51495;SDS011;37572;52.094;4.870;2023-02-15T09:18:12;47.05;;;27.13;;
51495;SDS011;37572;52.094;4.870;2023-02-15T09:20:41;47.60;;;26.45;;
51495;SDS011;37572;52.094;4.870;2023-02-15T09:23:07;46.07;;;25.37;;
51495;SDS011;37572;52.094;4.870;2023-02-15T09:25:32;47.23;;;26.67;;
51495;SDS011;37572;52.094;4.870;2023-02-15T09:27:58;47.70;;;25.83;;
51495;SDS011;37572;52.094;4.870;2023-02-15T09:30:23;47.47;;;25.03;;
51495;SDS011;37572;52.094;4.870;2023-02-15T09:32:49;47.63;;;26.57;;
51495;SDS011;37572;52.094;4.870;2023-02-15T09:35:14;44.47;;;25.53;;
51495;SDS011;37572;52.094;4.870;2023-02-15T09:37:39;48.03;;;26.43;;
51495;SDS011;37572;52.094;4.870;2023-02-15T09:40:04;49.00;;;26.63;;
51495;SDS011;37572;52.094;4.870;2023-02-15T09:42:42;46.00;;;27.25;;
51495;SDS011;37572;52.094;4.870;2023-02-15T09:50:08;46.75;;;23.80;;
51495;SDS011;37572;52.094;4.870;2023-02-15T09:58:05;46.92;;;24.48;;
51495;SDS011;37572;52.094;4.870;2023-02-15T10:10:57;47.65;;;24.00;;
51495;SDS011;37572;52.094;4.870;2023-02-15T10:13:46;41.88;;;24.45;;
51495;SDS011;37572;52.094;4.870;2023-02-15T10:16:57;46.75;;;23.88;;
51495;SDS011;37572;52.094;4.870;2023-02-15T10:19:23;46.35;;;25.25;;
51495;SDS011;37572;52.094;4.870;2023-02-15T10:26:51;46.05;;;24.58;;
51495;SDS011;37572;52.094;4.870;2023-02-15T10:29:32;44.50;;;25.02;;
51495;SDS011;37572;52.094;4.870;2023-02-15T10:32:05;44.67;;;25.88;;
51495;SDS011;37572;52.094;4.870;2023-02-15T10:34:40;45.67;;;24.25;;
51495;SDS011;37572;52.094;4.870;2023-02-15T10:45:15;43.75;;;25.40;;
51495;SDS011;37572;52.094;4.870;2023-02-15T10:47:59;44.33;;;25.40;;
51495;SDS011;37572;52.094;4.870;2023-02-15T10:55:42;47.15;;;25.58;;
51495;SDS011;37572;52.094;4.870;2023-02-15T11:00:55;46.42;;;27.63;;
51495;SDS011;37572;52.094;4.870;2023-02-15T11:03:40;46.35;;;24.27;;
51495;SDS011;37572;52.094;4.870;2023-02-15T11:06:08;50.15;;;27.42;;
51495;SDS011;37572;52.094;4.870;2023-02-15T11:08:37;47.58;;;26.55;;
51495;SDS011;37572;52.094;4.870;2023-02-15T11:11:07;49.28;;;27.08;;
51495;SDS011;37572;52.094;4.870;2023-02-15T11:13:34;46.80;;;26.35;;
51495;SDS011;37572;52.094;4.870;2023-02-15T11:16:14;49.63;;;27.85;;
51495;SDS011;37572;52.094;4.870;2023-02-15T11:21:28;48.95;;;27.65;;
51495;SDS011;37572;52.094;4.870;2023-02-15T11:23:57;54.13;;;29.42;;
51495;SDS011;37572;52.094;4.870;2023-02-15T11:26:26;52.00;;;28.05;;
51495;SDS011;37572;52.094;4.870;2023-02-15T11:29:11;51.03;;;28.08;;
51495;SDS011;37572;52.094;4.870;2023-02-15T11:31:45;51.70;;;27.95;;
51495;SDS011;37572;52.094;4.870;2023-02-15T11:34:13;46.75;;;27.70;;
51495;SDS011;37572;52.094;4.870;2023-02-15T11:36:40;47.95;;;28.08;;
51495;SDS011;37572;52.094;4.870;2023-02-15T11:39:09;50.50;;;28.10;;
51495;SDS011;37572;52.094;4.870;2023-02-15T11:41:37;49.35;;;29.30;;
51495;SDS011;37572;52.094;4.870;2023-02-15T11:44:10;49.95;;;30.50;;
51495;SDS011;37572;52.094;4.870;2023-02-15T11:46:37;52.08;;;28.38;;
51495;SDS011;37572;52.094;4.870;2023-02-15T11:49:04;51.57;;;27.73;;
51495;SDS011;37572;52.094;4.870;2023-02-15T11:51:29;49.72;;;28.75;;
51495;SDS011;37572;52.094;4.870;2023-02-15T11:53:54;51.17;;;28.73;;
51495;SDS011;37572;52.094;4.870;2023-02-15T11:56:24;43.55;;;26.23;;
51495;SDS011;37572;52.094;4.870;2023-02-15T11:58:54;52.40;;;29.48;;
51495;SDS011;37572;52.094;4.870;2023-02-15T12:09:33;48.95;;;27.60;;
51495;SDS011;37572;52.094;4.870;2023-02-15T12:14:48;47.10;;;27.30;;
51495;SDS011;37572;52.094;4.870;2023-02-15T12:17:13;44.83;;;27.55;;
51495;SDS011;37572;52.094;4.870;2023-02-15T12:19:39;47.70;;;28.60;;
51495;SDS011;37572;52.094;4.870;2023-02-15T12:22:05;44.70;;;26.50;;
51495;SDS011;37572;52.094;4.870;2023-02-15T12:24:37;44.25;;;25.73;;
51495;SDS011;37572;52.094;4.870;2023-02-15T12:29:50;45.25;;;27.05;;
51495;SDS011;37572;52.094;4.870;2023-02-15T12:32:18;46.20;;;26.55;;
51495;SDS011;37572;52.094;4.870;2023-02-15T12:34:44;45.92;;;25.17;;
51495;SDS011;37572;52.094;4.870;2023-02-15T12:37:15;43.20;;;26.38;;
51495;SDS011;37572;52.094;4.870;2023-02-15T12:39:50;50.20;;;27.13;;
51495;SDS011;37572;52.094;4.870;2023-02-15T12:42:16;42.13;;;26.23;;
51495;SDS011;37572;52.094;4.870;2023-02-15T12:47:41;43.38;;;25.90;;
51495;SDS011;37572;52.094;4.870;2023-02-15T12:50:22;42.93;;;26.20;;
51495;SDS011;37572;52.094;4.870;2023-02-15T12:52:48;44.42;;;27.55;;
51495;SDS011;37572;52.094;4.870;2023-02-15T12:55:22;43.75;;;28.20;;
51495;SDS011;37572;52.094;4.870;2023-02-15T12:57:47;47.50;;;28.70;;
51495;SDS011;37572;52.094;4.870;2023-02-15T13:02:44;47.42;;;30.50;;
51495;SDS011;37572;52.094;4.870;2023-02-15T13:05:17;45.10;;;27.58;;
51495;SDS011;37572;52.094;4.870;2023-02-15T13:07:50;47.10;;;27.52;;
51495;SDS011;37572;52.094;4.870;2023-02-15T13:10:21;48.05;;;26.92;;
51495;SDS011;37572;52.094;4.870;2023-02-15T13:12:47;45.80;;;26.92;;
51495;SDS011;37572;52.094;4.870;2023-02-15T13:15:22;43.58;;;26.65;;
51495;SDS011;37572;52.094;4.870;2023-02-15T13:17:49;50.25;;;27.60;;
51495;SDS011;37572;52.094;4.870;2023-02-15T13:20:16;44.17;;;26.37;;
51495;SDS011;37572;52.094;4.870;2023-02-15T13:22:43;45.63;;;25.63;;
51495;SDS011;37572;52.094;4.870;2023-02-15T13:25:19;46.78;;;26.17;;
51495;SDS011;37572;52.094;4.870;2023-02-15T13:27:46;44.30;;;27.27;;
51495;SDS011;37572;52.094;4.870;2023-02-15T13:32:40;48.42;;;28.80;;
51495;SDS011;37572;52.094;4.870;2023-02-15T13:35:06;49.20;;;29.17;;
51495;SDS011;37572;52.094;4.870;2023-02-15T13:40:18;44.42;;;26.35;;
51495;SDS011;37572;52.094;4.870;2023-02-15T14:28:41;43.50;;;24.60;;
51495;SDS011;37572;52.094;4.870;2023-02-15T14:31:09;46.67;;;25.27;;
51495;SDS011;37572;52.094;4.870;2023-02-15T14:36:02;42.25;;;24.20;;
51495;SDS011;37572;52.094;4.870;2023-02-15T14:39:15;47.47;;;27.23;;
51495;SDS011;37572;52.094;4.870;2023-02-15T14:46:21;46.60;;;26.38;;
51495;SDS011;37572;52.094;4.870;2023-02-15T14:48:50;46.95;;;27.05;;
51495;SDS011;37572;52.094;4.870;2023-02-15T14:52:03;46.22;;;26.58;;
51495;SDS011;37572;52.094;4.870;2023-02-15T14:54:02;48.10;;;25.83;;
51495;SDS011;37572;52.094;4.870;2023-02-15T14:56:27;47.77;;;25.40;;
51495;SDS011;37572;52.094;4.870;2023-02-15T15:01:33;46.28;;;25.48;;
51495;SDS011;37572;52.094;4.870;2023-02-15T15:04:00;50.22;;;26.65;;
51495;SDS011;37572;52.094;4.870;2023-02-15T15:06:29;48.38;;;25.83;;
51495;SDS011;37572;52.094;4.870;2023-02-15T15:08:55;47.00;;;25.15;;
51495;SDS011;37572;52.094;4.870;2023-02-15T15:13:59;49.33;;;25.38;;
51495;SDS011;37572;52.094;4.870;2023-02-15T15:16:29;46.60;;;25.67;;
51495;SDS011;37572;52.094;4.870;2023-02-15T15:18:55;48.92;;;24.75;;
51495;SDS011;37572;52.094;4.870;2023-02-15T15:24:05;48.17;;;26.40;;
51495;SDS011;37572;52.094;4.870;2023-02-15T15:26:31;54.38;;;27.60;;
51495;SDS011;37572;52.094;4.870;2023-02-15T15:29:00;48.28;;;29.15;;
51495;SDS011;37572;52.094;4.870;2023-02-15T15:49:14;48.20;;;26.20;;
51495;SDS011;37572;52.094;4.870;2023-02-15T15:51:40;45.88;;;25.40;;
51495;SDS011;37572;52.094;4.870;2023-02-15T15:54:11;50.45;;;26.88;;
51495;SDS011;37572;52.094;4.870;2023-02-15T15:56:37;48.33;;;26.40;;
51495;SDS011;37572;52.094;4.870;2023-02-15T15:59:07;49.27;;;24.87;;
51495;SDS011;37572;52.094;4.870;2023-02-15T16:01:40;44.08;;;24.90;;
51495;SDS011;37572;52.094;4.870;2023-02-15T16:04:10;51.60;;;27.05;;
51495;SDS011;37572;52.094;4.870;2023-02-15T16:06:37;49.10;;;26.70;;
51495;SDS011;37572;52.094;4.870;2023-02-15T16:09:10;50.17;;;26.60;;
51495;SDS011;37572;52.094;4.870;2023-02-15T16:11:35;49.60;;;26.52;;
51495;SDS011;37572;52.094;4.870;2023-02-15T16:14:07;49.13;;;26.30;;
51495;SDS011;37572;52.094;4.870;2023-02-15T16:16:33;48.60;;;24.88;;
51495;SDS011;37572;52.094;4.870;2023-02-15T16:18:58;50.93;;;27.17;;
51495;SDS011;37572;52.094;4.870;2023-02-15T16:21:26;51.63;;;28.90;;
51495;SDS011;37572;52.094;4.870;2023-02-15T16:24:02;50.85;;;29.08;;
51495;SDS011;37572;52.094;4.870;2023-02-15T16:28:58;52.95;;;27.75;;
51495;SDS011;37572;52.094;4.870;2023-02-15T16:31:24;56.30;;;29.97;;
51495;SDS011;37572;52.094;4.870;2023-02-15T16:33:51;56.50;;;28.57;;
51495;SDS011;37572;52.094;4.870;2023-02-15T16:41:11;60.27;;;29.47;;
51495;SDS011;37572;52.094;4.870;2023-02-15T16:43:37;55.88;;;30.58;;
51495;SDS011;37572;52.094;4.870;2023-02-15T16:46:05;53.10;;;29.50;;
51495;SDS011;37572;52.094;4.870;2023-02-15T16:48:31;59.17;;;28.85;;
51495;SDS011;37572;52.094;4.870;2023-02-15T16:50:57;59.20;;;31.00;;
51495;SDS011;37572;52.094;4.870;2023-02-15T16:53:24;52.47;;;27.45;;
51495;SDS011;37572;52.094;4.870;2023-02-15T16:55:50;55.35;;;29.58;;
51495;SDS011;37572;52.094;4.870;2023-02-15T16:58:17;57.45;;;29.27;;
51495;SDS011;37572;52.094;4.870;2023-02-15T17:00:42;55.00;;;28.80;;
51495;SDS011;37572;52.094;4.870;2023-02-15T17:10:39;55.17;;;29.15;;
51495;SDS011;37572;52.094;4.870;2023-02-15T17:15:36;61.55;;;30.88;;
51495;SDS011;37572;52.094;4.870;2023-02-15T17:18:03;57.20;;;30.33;;
51495;SDS011;37572;52.094;4.870;2023-02-15T17:20:29;55.88;;;30.98;;
51495;SDS011;37572;52.094;4.870;2023-02-15T17:22:54;57.92;;;29.90;;
51495;SDS011;37572;52.094;4.870;2023-02-15T17:25:20;58.10;;;29.33;;
51495;SDS011;37572;52.094;4.870;2023-02-15T17:27:51;56.20;;;29.50;;
51495;SDS011;37572;52.094;4.870;2023-02-15T17:30:22;61.40;;;30.23;;
51495;SDS011;37572;52.094;4.870;2023-02-15T17:33:18;57.97;;;31.20;;
51495;SDS011;37572;52.094;4.870;2023-02-15T17:35:37;57.20;;;29.55;;
51495;SDS011;37572;52.094;4.870;2023-02-15T17:38:05;58.67;;;30.17;;
51495;SDS011;37572;52.094;4.870;2023-02-15T17:40:33;56.35;;;28.75;;
51495;SDS011;37572;52.094;4.870;2023-02-15T17:42:58;58.00;;;30.40;;